Greater Kankakee Airport
KIKK : now visible

Airfield :











YOU CAN JOIN US ON...

 
LOGIN :

Register | Disclaimer

   EN    FR    IT 

 









Legend :    VFR   Marginal VFR   IFR   Intensive IFR   Very Intensive IFR
Visi :
Ceiling :
>= 8 km
>= 3000ft
5 to 8 km
1000 to 3000 ft
1500m to 5 km
500 to 1000 ft
800 to 1500m
200 to 500 ft
< 800m
< 200 ft
Symbols :   Thunderstorms  Fog  Heavy snow  Heavy precipitations  Wind > 20 kt






- Airport Elevation : 630 ft


KIKK - Greater Kankakee

CURRENT METAR :
  • 141635Z AUTO 32007KT 10SM OVC027 00/M05 A3026 RMK AO2 T10051050

EXPIRED METARs :
  • 141615Z AUTO 30004KT 10SM OVC027 M01/M05 A3026 RMK AO2 T10061050
  • 141555Z AUTO 32009KT 10SM OVC027 M01/M05 A3024 RMK AO2 T10071051
  • 141435Z AUTO 27003KT 10SM OVC031 M02/M05 A3023 RMK AO2 T10191053
  • 141415Z AUTO 27003KT 10SM OVC031 M02/M05 A3022 RMK AO2 T10211054
  • 141355Z AUTO 00000KT 10SM OVC031 M03/M06 A3021 RMK AO2 T10271056

TAF N/A



MET'MAP, your aeronautical weather chart ! - Copyright ORBIFLY December 2007 - Disclaimer

ORBIFLY MET'MAP TEAM :

Programming & Development : Alexandra Zaïnal
Concept & Development : Baudouin d'Aumeries
Co-Development & Prog : Marc-Olivier Méhu
Technical & hardware support : Manuel Goepfert

Contact : metmap@orbifly.com




SOURCES & CREDITS :

   NOAA       Earth
Advisory